METAR Data
IDs: Format: Raw Decoded Include TAF

Data at: 0222 UTC 24 Jun 2021

METAR for:KASE (Aspen/Pitkin Cnty, CO, US)
Text:KASE 240153Z 22005KT 10SM FU SCT060 BKN080 OVC090 21/03 A3027 RMK AO2 SLP120 T02110033
Temperature: 21.1°C ( 70°F)
Dewpoint: 3.3°C ( 38°F) [RH = 31%]
Pressure (altimeter):30.27 inches Hg (1025.1 mb) [Sea level pressure: 1012.0 mb]
Winds:from the SW (220 degrees) at 6 MPH (5 knots; 2.6 m/s)
Visibility:10 or more sm (16+ km)
Ceiling:8000 feet AGL
Clouds: scattered clouds at 6000 feet AGL, broken clouds at 8000 feet AGL, overcast cloud deck at 9000 feet AGL
Weather:FU (smoke)